createdAt,value
2022-12-30T00:00:11.189Z,2.10
2022-12-30T00:01:11.125Z,2.30
2022-12-30T00:02:11.237Z,2.20
2022-12-30T00:03:11.169Z,2.50
2022-12-30T00:04:11.066Z,2.20
2022-12-30T00:05:11.013Z,2.40
2022-12-30T00:06:10.989Z,2.30
2022-12-30T00:07:10.963Z,2.50
2022-12-30T00:08:10.934Z,2.20
2022-12-30T00:09:10.908Z,2.40
2022-12-30T00:10:10.916Z,2.20
2022-12-30T00:11:10.851Z,2.40
2022-12-30T00:12:10.824Z,2.40
2022-12-30T00:13:10.797Z,2.30
2022-12-30T00:14:10.771Z,2.20
2022-12-30T00:15:10.761Z,1.90
2022-12-30T00:16:10.743Z,2.40
2022-12-30T00:17:10.713Z,2.20
2022-12-30T00:18:10.669Z,2.60
2022-12-30T00:19:10.639Z,2.40
2022-12-30T00:20:10.634Z,2.60
2022-12-30T00:21:10.582Z,2.50
2022-12-30T00:22:10.560Z,2.60
2022-12-30T00:23:10.528Z,2.40
2022-12-30T00:24:10.500Z,2.30
2022-12-30T00:25:10.467Z,2.80
2022-12-30T00:26:10.447Z,2.60
2022-12-30T00:27:10.416Z,2.20
2022-12-30T00:28:10.413Z,3.20
2022-12-30T00:29:10.360Z,2.40
2022-12-30T00:30:10.330Z,2.80
2022-12-30T00:31:10.366Z,3.00
2022-12-30T00:32:10.325Z,2.90
2022-12-30T00:33:10.298Z,2.70
2022-12-30T00:34:10.221Z,2.60
2022-12-30T00:35:10.212Z,2.60
2022-12-30T00:36:10.184Z,3.00
2022-12-30T00:37:10.138Z,2.60
2022-12-30T00:38:10.112Z,2.30
2022-12-30T00:39:10.083Z,2.20
2022-12-30T00:40:10.060Z,2.20
2022-12-30T00:41:10.027Z,2.50
2022-12-30T00:42:10.004Z,2.50
2022-12-30T00:43:09.970Z,2.70
2022-12-30T00:44:09.962Z,2.70
2022-12-30T00:45:09.920Z,2.40
2022-12-30T00:46:10.005Z,2.20
2022-12-30T00:47:09.868Z,2.80
2022-12-30T00:48:09.866Z,2.30
2022-12-30T00:49:09.807Z,2.80
2022-12-30T00:50:09.794Z,2.20
2022-12-30T00:51:09.757Z,2.30
2022-12-30T00:52:09.751Z,2.40
2022-12-30T00:53:09.700Z,2.00
2022-12-30T00:54:09.696Z,2.40
2022-12-30T00:55:09.648Z,2.50
2022-12-30T00:56:09.617Z,2.30
2022-12-30T00:57:09.593Z,2.60
2022-12-30T00:58:09.563Z,2.80
2022-12-30T00:59:09.535Z,2.10
2022-12-30T01:00:09.518Z,2.20
2022-12-30T01:01:09.602Z,3.10
2022-12-30T01:02:09.565Z,2.40
2022-12-30T01:03:09.451Z,2.50
2022-12-30T01:04:09.466Z,2.50
2022-12-30T01:05:09.383Z,2.40
2022-12-30T01:06:09.347Z,2.40
2022-12-30T01:07:09.315Z,2.60
2022-12-30T01:08:09.321Z,2.30
2022-12-30T01:09:09.258Z,2.10
2022-12-30T01:10:09.236Z,2.40
2022-12-30T01:11:09.203Z,3.10
2022-12-30T01:12:09.183Z,2.40
2022-12-30T01:13:09.154Z,2.50
2022-12-30T01:14:09.121Z,2.30
2022-12-30T01:15:09.097Z,2.20
2022-12-30T01:16:09.103Z,2.30
2022-12-30T01:17:09.041Z,2.20
2022-12-30T01:18:09.021Z,2.50
2022-12-30T01:19:08.997Z,2.60
2022-12-30T01:20:08.966Z,2.50
2022-12-30T01:21:08.931Z,2.30
2022-12-30T01:22:08.903Z,3.20
2022-12-30T01:23:08.873Z,2.60
2022-12-30T01:24:08.871Z,2.60
2022-12-30T01:25:08.819Z,2.70
2022-12-30T01:26:08.800Z,2.90
2022-12-30T01:27:08.772Z,2.50
2022-12-30T01:28:08.765Z,2.30
2022-12-30T01:29:08.708Z,2.80
2022-12-30T01:30:08.700Z,2.70
2022-12-30T01:31:08.658Z,2.50
2022-12-30T01:32:08.654Z,2.40
2022-12-30T01:33:08.598Z,2.30
2022-12-30T01:34:08.573Z,2.70
2022-12-30T01:35:08.554Z,2.20
2022-12-30T01:36:08.513Z,2.40
2022-12-30T01:37:08.499Z,2.10
2022-12-30T01:38:08.464Z,2.70
2022-12-30T01:39:08.437Z,2.50
2022-12-30T01:40:08.465Z,2.30
2022-12-30T01:41:08.381Z,3.00
2022-12-30T01:42:08.349Z,2.20
2022-12-30T01:43:08.331Z,2.70
2022-12-30T01:44:08.294Z,2.60
2022-12-30T01:45:08.269Z,2.20
2022-12-30T01:46:08.343Z,2.50
2022-12-30T01:47:08.211Z,2.60
2022-12-30T01:48:08.184Z,2.70
2022-12-30T01:49:08.156Z,2.40
2022-12-30T01:50:08.459Z,2.30
2022-12-30T01:51:08.103Z,2.70
2022-12-30T01:52:08.074Z,2.50
2022-12-30T01:53:08.044Z,2.30
2022-12-30T01:54:08.018Z,2.70
2022-12-30T01:55:07.989Z,2.80
2022-12-30T01:56:07.982Z,2.20
2022-12-30T01:57:07.937Z,2.60
2022-12-30T01:58:07.904Z,2.20
2022-12-30T01:59:07.879Z,2.40
2022-12-30T02:00:07.861Z,2.40
2022-12-30T02:01:07.967Z,2.40
2022-12-30T02:02:07.965Z,2.60
2022-12-30T02:03:07.830Z,2.90
2022-12-30T02:04:07.742Z,2.00
2022-12-30T02:05:07.717Z,2.40
2022-12-30T02:06:07.685Z,3.20
2022-12-30T02:07:07.673Z,2.60
2022-12-30T02:08:07.644Z,2.30
2022-12-30T02:09:07.603Z,2.50
2022-12-30T02:10:07.577Z,2.60
2022-12-30T02:11:07.548Z,2.90
2022-12-30T02:12:07.583Z,2.30
2022-12-30T02:13:07.522Z,2.50
2022-12-30T02:14:09.816Z,2.70
2022-12-30T02:15:07.457Z,2.60
2022-12-30T02:16:07.416Z,2.50
2022-12-30T02:17:07.467Z,2.40
2022-12-30T02:18:07.352Z,2.50
2022-12-30T02:19:07.329Z,2.50
2022-12-30T02:20:07.321Z,2.40
2022-12-30T02:21:07.287Z,2.50
2022-12-30T02:22:07.248Z,2.40
2022-12-30T02:23:07.240Z,2.70
2022-12-30T02:24:07.187Z,3.20
2022-12-30T02:25:07.162Z,2.40
2022-12-30T02:26:07.132Z,2.60
2022-12-30T02:27:07.111Z,2.20
2022-12-30T02:28:07.097Z,2.90
2022-12-30T02:29:07.049Z,2.20
2022-12-30T02:30:07.032Z,3.50
2022-12-30T02:31:07.022Z,2.60
2022-12-30T02:32:06.969Z,2.70
2022-12-30T02:33:06.943Z,2.70
2022-12-30T02:34:06.908Z,2.30
2022-12-30T02:35:06.884Z,2.30
2022-12-30T02:36:06.851Z,2.40
2022-12-30T02:37:06.830Z,2.60
2022-12-30T02:38:06.799Z,2.60
2022-12-30T02:39:06.775Z,2.40
2022-12-30T02:40:06.755Z,2.40
2022-12-30T02:41:06.716Z,2.50
2022-12-30T02:42:06.691Z,2.20
2022-12-30T02:43:06.661Z,2.60
2022-12-30T02:44:06.650Z,2.60
2022-12-30T02:45:06.619Z,2.30
2022-12-30T02:46:06.689Z,2.50
2022-12-30T02:47:06.550Z,2.50
2022-12-30T02:48:06.523Z,2.40
2022-12-30T02:49:06.496Z,2.20
2022-12-30T02:50:06.469Z,2.30
2022-12-30T02:51:06.457Z,3.00
2022-12-30T02:52:06.409Z,2.50
2022-12-30T02:53:06.398Z,2.30
2022-12-30T02:54:06.355Z,2.60
2022-12-30T02:55:06.324Z,2.20
2022-12-30T02:56:06.308Z,2.50
2022-12-30T02:57:06.273Z,3.00
2022-12-30T02:58:06.245Z,2.90
2022-12-30T02:59:06.216Z,2.10
2022-12-30T03:00:06.231Z,2.60
2022-12-30T03:01:06.296Z,2.30
2022-12-30T03:02:06.258Z,2.50
2022-12-30T03:03:06.245Z,2.50
2022-12-30T03:04:06.079Z,2.80
2022-12-30T03:05:06.056Z,2.50
2022-12-30T03:06:06.021Z,2.30
2022-12-30T03:07:05.998Z,2.90
2022-12-30T03:08:05.963Z,2.30
2022-12-30T03:09:05.938Z,2.00
2022-12-30T03:10:09.512Z,2.30
2022-12-30T03:11:05.882Z,2.20
2022-12-30T03:12:05.866Z,2.70
2022-12-30T03:13:05.848Z,2.10
2022-12-30T03:14:05.798Z,2.20
2022-12-30T03:15:05.774Z,2.50
2022-12-30T03:16:05.837Z,2.20
2022-12-30T03:17:05.721Z,2.20
2022-12-30T03:18:05.705Z,2.30
2022-12-30T03:19:05.666Z,2.30
2022-12-30T03:20:05.632Z,2.40
2022-12-30T03:21:05.605Z,2.00
2022-12-30T03:22:05.575Z,2.30
2022-12-30T03:23:05.548Z,2.10
2022-12-30T03:24:05.522Z,2.60
2022-12-30T03:25:05.499Z,2.60
2022-12-30T03:26:05.468Z,2.60
2022-12-30T03:27:05.466Z,2.90
2022-12-30T03:28:05.410Z,2.50
2022-12-30T03:29:05.385Z,2.50
2022-12-30T03:30:05.354Z,2.50
2022-12-30T03:31:05.368Z,2.10
2022-12-30T03:32:05.325Z,2.30
2022-12-30T03:33:05.273Z,2.30
2022-12-30T03:34:05.244Z,2.20
2022-12-30T03:35:05.217Z,2.40
2022-12-30T03:36:05.190Z,2.40
2022-12-30T03:37:05.166Z,2.40
2022-12-30T03:38:05.133Z,3.30
2022-12-30T03:39:05.113Z,2.60
2022-12-30T03:40:05.076Z,2.20
2022-12-30T03:41:05.063Z,2.50
2022-12-30T03:42:05.025Z,4.10
2022-12-30T03:43:04.998Z,2.30
2022-12-30T03:44:04.975Z,2.70
2022-12-30T03:45:04.956Z,2.20
2022-12-30T03:46:05.044Z,2.60
2022-12-30T03:47:04.888Z,2.20
2022-12-30T03:48:04.877Z,2.80
2022-12-30T03:49:04.831Z,2.40
2022-12-30T03:50:04.804Z,2.30
2022-12-30T03:51:04.777Z,2.30
2022-12-30T03:52:05.506Z,2.30
2022-12-30T03:53:04.721Z,2.00
2022-12-30T03:54:04.690Z,2.20
2022-12-30T03:55:04.667Z,2.30
2022-12-30T03:56:04.637Z,2.50
2022-12-30T03:57:04.617Z,2.10
2022-12-30T03:58:04.581Z,2.80
2022-12-30T03:59:04.558Z,2.60
2022-12-30T04:00:04.525Z,2.20
2022-12-30T04:01:04.538Z,2.60
2022-12-30T04:02:04.607Z,2.50
2022-12-30T04:03:04.602Z,2.20
2022-12-30T04:04:04.437Z,2.40
2022-12-30T04:05:04.395Z,2.50
2022-12-30T04:06:04.371Z,2.50
2022-12-30T04:07:04.335Z,2.70
2022-12-30T04:08:04.306Z,2.20
2022-12-30T04:09:04.281Z,2.20
2022-12-30T04:10:04.293Z,2.10
2022-12-30T04:11:04.225Z,2.30
2022-12-30T04:12:04.217Z,2.50
2022-12-30T04:13:04.170Z,2.20
2022-12-30T04:14:04.142Z,2.50
2022-12-30T04:15:04.111Z,2.20
2022-12-30T04:16:04.113Z,2.20
2022-12-30T04:17:04.056Z,2.30
2022-12-30T04:18:04.030Z,2.00
2022-12-30T04:19:04.004Z,2.10
2022-12-30T04:20:03.991Z,2.60
2022-12-30T04:21:03.947Z,2.60
2022-12-30T04:22:03.929Z,2.70
2022-12-30T04:23:03.893Z,2.50
2022-12-30T04:24:03.877Z,2.70
2022-12-30T04:25:03.840Z,2.60
2022-12-30T04:26:03.804Z,2.50
2022-12-30T04:27:03.793Z,2.60
2022-12-30T04:28:03.754Z,2.70
2022-12-30T04:29:03.725Z,2.50
2022-12-30T04:30:03.700Z,2.30
2022-12-30T04:31:03.719Z,2.20
2022-12-30T04:32:03.716Z,2.20
2022-12-30T04:33:03.611Z,2.10
2022-12-30T04:34:08.036Z,2.50
2022-12-30T04:35:03.557Z,2.30
2022-12-30T04:36:03.547Z,1.90
2022-12-30T04:37:03.502Z,2.40
2022-12-30T04:38:03.485Z,2.10
2022-12-30T04:39:03.451Z,2.40
2022-12-30T04:40:03.424Z,2.70
2022-12-30T04:41:03.399Z,2.80
2022-12-30T04:42:03.372Z,2.00
2022-12-30T04:43:03.334Z,2.60
2022-12-30T04:44:03.311Z,2.50
2022-12-30T04:45:03.283Z,2.80
2022-12-30T04:46:03.255Z,2.10
2022-12-30T04:47:03.331Z,2.60
2022-12-30T04:48:03.193Z,2.10
2022-12-30T04:49:03.167Z,2.50
2022-12-30T04:50:03.156Z,2.40
2022-12-30T04:51:03.112Z,2.50
2022-12-30T04:52:03.105Z,2.50
2022-12-30T04:53:03.059Z,2.80
2022-12-30T04:54:03.027Z,2.30
2022-12-30T04:55:02.996Z,2.90
2022-12-30T04:56:02.989Z,2.50
2022-12-30T04:57:02.947Z,2.30
2022-12-30T04:58:02.917Z,2.80
2022-12-30T04:59:02.890Z,2.80
2022-12-30T05:00:02.869Z,2.40
2022-12-30T05:01:02.970Z,2.60
2022-12-30T05:02:03.029Z,2.70
2022-12-30T05:03:02.916Z,2.90
2022-12-30T05:04:02.753Z,3.10
2022-12-30T05:05:02.742Z,2.50
2022-12-30T05:06:02.699Z,3.20
2022-12-30T05:07:02.666Z,2.60
2022-12-30T05:08:02.662Z,2.90
2022-12-30T05:09:02.615Z,3.10
2022-12-30T05:10:02.580Z,3.10
2022-12-30T05:11:02.555Z,2.70
2022-12-30T05:12:02.525Z,2.90
2022-12-30T05:13:02.510Z,2.70
2022-12-30T05:14:02.493Z,3.50
2022-12-30T05:15:02.448Z,3.10
2022-12-30T05:16:02.459Z,3.60
2022-12-30T05:17:02.386Z,2.80
2022-12-30T05:18:02.358Z,2.80
2022-12-30T05:19:02.337Z,3.20
2022-12-30T05:20:02.300Z,3.90
2022-12-30T05:21:02.272Z,2.90
2022-12-30T05:22:02.242Z,3.40
2022-12-30T05:23:02.217Z,3.10
2022-12-30T05:24:02.256Z,2.90
2022-12-30T05:25:02.176Z,3.10
2022-12-30T05:26:02.145Z,3.60
2022-12-30T05:27:02.113Z,3.50
2022-12-30T05:28:02.073Z,3.20
2022-12-30T05:29:02.048Z,3.00
2022-12-30T05:30:02.017Z,2.80
2022-12-30T05:31:01.996Z,3.30
2022-12-30T05:32:02.049Z,2.90
2022-12-30T05:33:01.935Z,3.30
2022-12-30T05:34:08.618Z,2.80
2022-12-30T05:35:01.893Z,3.60
2022-12-30T05:36:01.848Z,2.70
2022-12-30T05:37:01.822Z,3.10
2022-12-30T05:38:01.794Z,3.30
2022-12-30T05:39:01.788Z,3.30
2022-12-30T05:40:01.752Z,3.10
2022-12-30T05:41:08.411Z,3.40
2022-12-30T05:42:01.697Z,2.80
2022-12-30T05:43:01.662Z,3.10
2022-12-30T05:44:01.651Z,3.40
2022-12-30T05:45:01.666Z,2.90
2022-12-30T05:46:01.726Z,3.20
2022-12-30T05:47:01.539Z,3.40
2022-12-30T05:48:01.515Z,2.90
2022-12-30T05:49:01.482Z,3.20
2022-12-30T05:50:01.476Z,3.00
2022-12-30T05:51:01.424Z,3.10
2022-12-30T05:52:01.396Z,3.10
2022-12-30T05:53:01.367Z,2.90
2022-12-30T05:54:01.345Z,2.80
2022-12-30T05:55:01.343Z,2.90
2022-12-30T05:56:01.303Z,2.90
2022-12-30T05:57:01.256Z,2.90
2022-12-30T05:58:01.224Z,3.20
2022-12-30T05:59:01.205Z,3.90
2022-12-30T06:00:01.171Z,3.00
2022-12-30T06:01:01.145Z,3.40
2022-12-30T06:02:01.431Z,2.90
2022-12-30T06:03:01.186Z,3.00
2022-12-30T06:04:01.195Z,3.30
2022-12-30T06:05:01.027Z,3.10
2022-12-30T06:06:01.009Z,2.70
2022-12-30T06:07:01.002Z,2.60
2022-12-30T06:08:00.940Z,3.10
2022-12-30T06:09:00.928Z,3.00
2022-12-30T06:10:00.886Z,3.10
2022-12-30T06:11:00.856Z,2.60
2022-12-30T06:12:00.848Z,2.70
2022-12-30T06:13:00.799Z,2.60
2022-12-30T06:14:00.771Z,2.70
2022-12-30T06:15:00.738Z,2.50
2022-12-30T06:16:00.714Z,2.70
2022-12-30T06:17:00.754Z,3.20
2022-12-30T06:18:00.667Z,2.90
2022-12-30T06:19:00.626Z,2.50
2022-12-30T06:20:00.604Z,2.50
2022-12-30T06:21:00.569Z,2.80
2022-12-30T06:22:00.541Z,3.10
2022-12-30T06:23:00.510Z,2.70
2022-12-30T06:24:00.488Z,2.40
2022-12-30T06:25:00.453Z,2.50
2022-12-30T06:26:00.436Z,2.70
2022-12-30T06:27:00.396Z,3.20
2022-12-30T06:28:00.397Z,2.80
2022-12-30T06:29:00.339Z,2.60
2022-12-30T06:30:00.312Z,2.80
2022-12-30T06:31:00.348Z,2.50
2022-12-30T06:32:00.263Z,2.80
2022-12-30T06:33:00.231Z,3.30
2022-12-30T06:34:00.205Z,2.80
2022-12-30T06:35:00.167Z,2.80
2022-12-30T06:36:00.144Z,2.70
2022-12-30T06:37:00.120Z,2.90
2022-12-30T06:38:00.093Z,3.30
2022-12-30T06:39:00.055Z,2.60
2022-12-30T06:40:00.029Z,2.30
2022-12-30T06:41:00.002Z,3.00
2022-12-30T06:41:59.968Z,2.40
2022-12-30T06:42:59.941Z,2.40
2022-12-30T06:43:59.943Z,3.30
2022-12-30T06:44:59.882Z,2.80
2022-12-30T06:45:59.889Z,2.50
2022-12-30T06:46:59.829Z,2.50
2022-12-30T06:47:59.797Z,2.50
2022-12-30T06:48:59.770Z,2.80
2022-12-30T06:49:59.740Z,2.60
2022-12-30T06:50:59.711Z,2.50
2022-12-30T06:51:59.697Z,2.30
2022-12-30T06:52:59.653Z,2.30
2022-12-30T06:53:59.632Z,2.30
2022-12-30T06:54:59.598Z,2.50
2022-12-30T06:55:59.570Z,2.20
2022-12-30T06:56:59.540Z,2.70
2022-12-30T06:57:59.517Z,2.60
2022-12-30T06:58:59.480Z,2.50
2022-12-30T06:59:59.482Z,2.60
2022-12-30T07:00:59.425Z,2.60
2022-12-30T07:01:59.562Z,2.40
2022-12-30T07:02:59.477Z,2.80
2022-12-30T07:03:59.456Z,2.50
2022-12-30T07:04:59.312Z,2.70
2022-12-30T07:05:59.284Z,2.80
2022-12-30T07:06:59.254Z,3.20
2022-12-30T07:07:59.235Z,2.70
2022-12-30T07:08:59.194Z,2.50
2022-12-30T07:09:59.183Z,2.40
2022-12-30T07:10:59.143Z,2.50
2022-12-30T07:11:59.111Z,2.60
2022-12-30T07:12:59.088Z,2.30
2022-12-30T07:13:59.054Z,2.30
2022-12-30T07:14:59.021Z,2.50
2022-12-30T07:15:59.095Z,2.40
2022-12-30T07:16:58.970Z,2.10
2022-12-30T07:17:58.939Z,2.50
2022-12-30T07:18:58.914Z,2.10
2022-12-30T07:19:58.879Z,2.10
2022-12-30T07:20:58.850Z,2.40
2022-12-30T07:21:58.830Z,2.10
2022-12-30T07:23:02.943Z,2.40
2022-12-30T07:23:58.770Z,2.40
2022-12-30T07:24:58.755Z,2.10
2022-12-30T07:25:58.709Z,2.10
2022-12-30T07:26:58.686Z,2.20
2022-12-30T07:27:58.650Z,2.40
2022-12-30T07:28:58.621Z,1.80
2022-12-30T07:29:58.594Z,2.50
2022-12-30T07:30:58.627Z,2.20
2022-12-30T07:31:58.612Z,2.60
2022-12-30T07:32:58.613Z,2.10
2022-12-30T07:33:58.481Z,2.50
2022-12-30T07:34:58.457Z,2.20
2022-12-30T07:35:58.421Z,2.50
2022-12-30T07:36:58.393Z,2.50
2022-12-30T07:37:58.366Z,2.70
2022-12-30T07:38:58.342Z,2.70
2022-12-30T07:39:58.309Z,2.70
2022-12-30T07:40:58.276Z,2.00
2022-12-30T07:41:58.251Z,2.80
2022-12-30T07:42:58.230Z,2.90
2022-12-30T07:43:58.197Z,2.40
2022-12-30T07:44:58.196Z,2.60
2022-12-30T07:45:58.251Z,2.50
2022-12-30T07:46:58.156Z,2.60
2022-12-30T07:47:58.096Z,3.30
2022-12-30T07:48:58.049Z,2.20
2022-12-30T07:49:58.044Z,2.80
2022-12-30T07:50:57.992Z,3.00
2022-12-30T07:51:57.969Z,2.30
2022-12-30T07:52:57.938Z,2.80
2022-12-30T07:54:03.320Z,2.80
2022-12-30T07:54:57.875Z,2.60
2022-12-30T07:55:57.849Z,2.30
2022-12-30T07:56:57.828Z,2.80
2022-12-30T07:57:57.791Z,2.20
2022-12-30T07:58:57.758Z,2.10
2022-12-30T07:59:57.743Z,2.50
2022-12-30T08:00:57.716Z,2.60
2022-12-30T08:01:57.819Z,2.70
2022-12-30T08:02:57.808Z,2.60
2022-12-30T08:03:57.753Z,2.20
2022-12-30T08:04:57.598Z,2.60
2022-12-30T08:05:57.635Z,2.50
2022-12-30T08:06:57.566Z,2.70
2022-12-30T08:07:57.504Z,2.40
2022-12-30T08:08:57.470Z,2.30
2022-12-30T08:09:57.444Z,1.90
2022-12-30T08:10:58.413Z,2.70
2022-12-30T08:11:57.386Z,2.20
2022-12-30T08:12:57.362Z,2.40
2022-12-30T08:13:57.336Z,2.30
2022-12-30T08:14:57.297Z,2.10
2022-12-30T08:15:57.350Z,2.10
2022-12-30T08:16:57.246Z,2.10
2022-12-30T08:17:57.211Z,2.20
2022-12-30T08:18:57.184Z,2.50
2022-12-30T08:19:57.176Z,2.30
2022-12-30T08:20:57.125Z,2.30
2022-12-30T08:21:57.127Z,2.40
2022-12-30T08:22:57.070Z,2.20
2022-12-30T08:23:57.054Z,2.30
2022-12-30T08:24:57.007Z,2.30
2022-12-30T08:25:56.982Z,2.60
2022-12-30T08:26:56.950Z,2.30
2022-12-30T08:27:56.923Z,2.70
2022-12-30T08:28:56.899Z,2.40
2022-12-30T08:29:56.866Z,2.30
2022-12-30T08:30:56.892Z,2.30
2022-12-30T08:31:56.834Z,2.10
2022-12-30T08:32:56.778Z,2.20
2022-12-30T08:33:56.750Z,2.70
2022-12-30T08:34:56.720Z,2.40
2022-12-30T08:35:56.715Z,2.50
2022-12-30T08:36:56.682Z,2.50
2022-12-30T08:37:56.650Z,2.60
2022-12-30T08:38:56.604Z,2.10
2022-12-30T08:39:56.683Z,2.10
2022-12-30T08:40:56.552Z,2.20
2022-12-30T08:41:57.314Z,2.10
2022-12-30T08:42:56.496Z,2.60
2022-12-30T08:43:56.479Z,5.00
2022-12-30T08:44:56.429Z,3.00
2022-12-30T08:45:56.406Z,4.10
2022-12-30T08:46:56.500Z,5.30
2022-12-30T08:47:56.347Z,3.00
2022-12-30T08:48:56.316Z,2.40
2022-12-30T08:49:56.295Z,2.50
2022-12-30T08:50:58.885Z,2.70
2022-12-30T08:51:56.252Z,2.40
2022-12-30T08:52:56.202Z,2.70
2022-12-30T08:53:56.174Z,3.00
2022-12-30T08:54:56.147Z,3.30
2022-12-30T08:55:56.121Z,4.40
2022-12-30T08:56:56.086Z,4.20
2022-12-30T08:57:56.059Z,4.70
2022-12-30T08:58:56.029Z,4.70
2022-12-30T08:59:56.001Z,5.10
2022-12-30T09:00:56.029Z,4.50
2022-12-30T09:01:56.116Z,3.00
2022-12-30T09:02:56.146Z,3.10
2022-12-30T09:03:55.892Z,2.40
2022-12-30T09:04:55.858Z,2.60
2022-12-30T09:06:00.785Z,1.90
2022-12-30T09:06:55.796Z,2.40
2022-12-30T09:07:58.707Z,2.30
2022-12-30T09:08:55.745Z,2.30
2022-12-30T09:09:55.714Z,2.00
2022-12-30T09:10:55.680Z,2.30
2022-12-30T09:11:55.687Z,2.30
2022-12-30T09:12:55.625Z,1.90
2022-12-30T09:14:00.077Z,2.30
2022-12-30T09:14:55.567Z,2.10
2022-12-30T09:15:55.610Z,2.50
2022-12-30T09:16:55.533Z,2.20
2022-12-30T09:17:55.484Z,2.50
2022-12-30T09:18:55.462Z,2.30
2022-12-30T09:19:55.428Z,2.60
2022-12-30T09:20:55.414Z,2.10
2022-12-30T09:21:55.371Z,2.50
2022-12-30T09:22:55.337Z,2.10
2022-12-30T09:23:55.331Z,2.20
2022-12-30T09:24:55.289Z,1.90
2022-12-30T09:25:55.256Z,2.00
2022-12-30T09:27:00.690Z,2.40
2022-12-30T09:27:55.201Z,1.80
2022-12-30T09:28:55.176Z,1.80
2022-12-30T09:29:55.163Z,2.20
2022-12-30T09:30:55.126Z,2.60
2022-12-30T09:31:55.233Z,1.80
2022-12-30T09:32:55.053Z,2.00
2022-12-30T09:33:55.039Z,1.90
2022-12-30T09:34:54.996Z,2.20
2022-12-30T09:35:54.974Z,2.10
2022-12-30T09:36:54.940Z,1.80
2022-12-30T09:37:54.913Z,2.40
2022-12-30T09:38:54.903Z,2.30
2022-12-30T09:39:54.893Z,2.20
2022-12-30T09:40:54.828Z,2.40
2022-12-30T09:41:54.799Z,2.80
2022-12-30T09:42:54.769Z,7.50
2022-12-30T09:43:54.739Z,3.40
2022-12-30T09:44:54.709Z,3.30
2022-12-30T09:45:54.762Z,6.40
2022-12-30T09:46:54.749Z,2.60
2022-12-30T09:47:54.627Z,4.00
2022-12-30T09:48:54.597Z,2.60
2022-12-30T09:49:54.585Z,5.00
2022-12-30T09:50:54.535Z,2.10
2022-12-30T09:51:54.534Z,3.40
2022-12-30T09:52:54.483Z,3.10
2022-12-30T09:53:54.468Z,3.10
2022-12-30T09:54:54.430Z,2.80
2022-12-30T09:55:54.417Z,2.40
2022-12-30T09:56:54.369Z,2.20
2022-12-30T09:57:54.348Z,2.50
2022-12-30T09:58:58.735Z,2.50
2022-12-30T09:59:54.289Z,2.30
2022-12-30T10:00:54.421Z,2.10
2022-12-30T10:01:54.533Z,2.40
2022-12-30T10:02:54.491Z,2.90
2022-12-30T10:03:58.600Z,2.60
2022-12-30T10:04:54.181Z,2.50
2022-12-30T10:05:54.151Z,2.60
2022-12-30T10:06:54.119Z,2.70
2022-12-30T10:07:54.140Z,2.40
2022-12-30T10:08:54.027Z,2.00
2022-12-30T10:09:54.002Z,2.40
2022-12-30T10:10:53.982Z,3.10
2022-12-30T10:11:53.959Z,2.80
2022-12-30T10:12:53.920Z,2.50
2022-12-30T10:13:53.892Z,3.60
2022-12-30T10:14:53.857Z,1.90
2022-12-30T10:15:53.832Z,2.00
2022-12-30T10:16:53.953Z,2.10
2022-12-30T10:17:53.776Z,2.80
2022-12-30T10:18:53.748Z,5.70
2022-12-30T10:19:53.717Z,6.90
2022-12-30T10:20:53.694Z,8.40
2022-12-30T10:21:53.661Z,5.40
2022-12-30T10:22:53.692Z,4.10
2022-12-30T10:23:53.604Z,3.00
2022-12-30T10:24:53.582Z,1.60
2022-12-30T10:25:53.550Z,2.20
2022-12-30T10:26:53.556Z,2.10
2022-12-30T10:27:53.509Z,2.60
2022-12-30T10:28:53.467Z,2.40
2022-12-30T10:29:58.301Z,2.30
2022-12-30T10:30:53.413Z,2.10
2022-12-30T10:31:53.473Z,2.00
2022-12-30T10:32:53.363Z,2.10
2022-12-30T10:33:53.338Z,1.80
2022-12-30T10:34:53.293Z,1.70
2022-12-30T10:35:57.470Z,1.70
2022-12-30T10:36:53.238Z,1.80
2022-12-30T10:37:53.291Z,1.70
2022-12-30T10:38:53.180Z,1.80
2022-12-30T10:39:53.154Z,1.60
2022-12-30T10:40:54.959Z,1.70
2022-12-30T10:41:53.095Z,1.80
2022-12-30T10:42:53.070Z,2.00
2022-12-30T10:43:53.101Z,2.10
2022-12-30T10:44:53.014Z,2.00
2022-12-30T10:45:53.024Z,1.90
2022-12-30T10:46:52.963Z,1.80
2022-12-30T10:47:52.931Z,2.60
2022-12-30T10:48:52.901Z,2.60
2022-12-30T10:49:52.874Z,2.50
2022-12-30T10:50:52.846Z,2.30
2022-12-30T10:51:52.813Z,2.70
2022-12-30T10:52:58.863Z,4.80
2022-12-30T10:53:52.757Z,4.30
2022-12-30T10:54:52.746Z,4.40
2022-12-30T10:55:52.703Z,3.40
2022-12-30T10:56:52.680Z,4.30
2022-12-30T10:57:52.654Z,4.30
2022-12-30T10:58:58.020Z,2.10
2022-12-30T10:59:52.613Z,2.20
2022-12-30T11:00:52.628Z,2.10
2022-12-30T11:01:52.630Z,2.40
2022-12-30T11:02:52.808Z,2.70
2022-12-30T11:03:52.482Z,2.40
2022-12-30T11:04:52.457Z,2.40
2022-12-30T11:05:52.429Z,2.40
2022-12-30T11:06:52.403Z,2.20
2022-12-30T11:07:52.380Z,1.30
2022-12-30T11:08:52.368Z,1.90
2022-12-30T11:09:54.195Z,1.80
2022-12-30T11:10:52.289Z,1.70
2022-12-30T11:12:23.139Z,2.10
2022-12-30T11:12:52.237Z,2.00
2022-12-30T11:13:52.200Z,1.50
2022-12-30T11:14:52.177Z,1.70
2022-12-30T11:15:52.165Z,1.60
2022-12-30T11:16:52.179Z,1.50
2022-12-30T11:17:52.092Z,1.70
2022-12-30T11:18:52.138Z,1.50
2022-12-30T11:19:52.037Z,1.60
2022-12-30T11:20:52.012Z,1.50
2022-12-30T11:21:51.997Z,1.60
2022-12-30T11:22:51.975Z,1.70
2022-12-30T11:23:51.938Z,1.90
2022-12-30T11:24:51.903Z,2.10
2022-12-30T11:25:51.871Z,1.70
2022-12-30T11:26:51.895Z,1.80
2022-12-30T11:27:51.814Z,1.40
2022-12-30T11:28:51.845Z,1.80
2022-12-30T11:29:51.761Z,1.80
2022-12-30T11:30:51.870Z,2.60
2022-12-30T11:31:51.731Z,2.40
2022-12-30T11:32:51.685Z,3.20
2022-12-30T11:33:51.655Z,2.50
2022-12-30T11:34:51.633Z,3.10
2022-12-30T11:35:51.598Z,3.40
2022-12-30T11:36:51.572Z,2.40
2022-12-30T11:37:51.557Z,2.00
2022-12-30T11:38:51.738Z,2.30
2022-12-30T11:39:51.500Z,2.20
2022-12-30T11:40:51.460Z,2.40
2022-12-30T11:41:51.433Z,2.70
2022-12-30T11:42:51.403Z,2.00
2022-12-30T11:43:51.377Z,2.30
2022-12-30T11:44:51.349Z,2.30
2022-12-30T11:45:53.486Z,2.30
2022-12-30T11:46:51.445Z,2.10
2022-12-30T11:47:51.288Z,2.00
2022-12-30T11:48:51.405Z,2.20
2022-12-30T11:49:51.209Z,2.10
2022-12-30T11:50:51.184Z,2.00
2022-12-30T11:51:51.663Z,1.80
2022-12-30T11:52:51.131Z,1.90
2022-12-30T11:53:51.105Z,2.30
2022-12-30T11:54:51.078Z,2.20
2022-12-30T11:55:51.054Z,2.00
2022-12-30T11:56:51.033Z,2.00
2022-12-30T11:57:52.883Z,1.70
2022-12-30T11:58:50.986Z,2.00
2022-12-30T11:59:50.953Z,1.80
2022-12-30T12:00:50.909Z,2.20
2022-12-30T12:01:50.927Z,1.50
2022-12-30T12:02:50.947Z,1.40
2022-12-30T12:03:51.011Z,1.50
2022-12-30T12:04:50.815Z,1.60
2022-12-30T12:05:50.773Z,1.50
2022-12-30T12:06:50.773Z,1.50
2022-12-30T12:07:50.715Z,1.50
2022-12-30T12:08:50.713Z,1.50
2022-12-30T12:09:50.659Z,1.60
2022-12-30T12:10:50.633Z,1.40
2022-12-30T12:11:50.607Z,1.50
2022-12-30T12:12:53.520Z,1.40
2022-12-30T12:13:50.552Z,3.30
2022-12-30T12:14:50.526Z,3.90
2022-12-30T12:15:50.547Z,3.20
2022-12-30T12:16:50.491Z,1.80
2022-12-30T12:17:50.443Z,1.70
2022-12-30T12:18:50.531Z,1.60
2022-12-30T12:19:50.404Z,2.00
2022-12-30T12:20:50.362Z,1.70
2022-12-30T12:21:50.332Z,1.60
2022-12-30T12:22:50.325Z,1.70
2022-12-30T12:23:50.282Z,1.50
2022-12-30T12:24:50.264Z,1.50
2022-12-30T12:25:50.248Z,1.70
2022-12-30T12:26:50.196Z,1.50
2022-12-30T12:27:50.172Z,1.60
2022-12-30T12:28:50.238Z,1.70
2022-12-30T12:29:50.110Z,1.70
2022-12-30T12:30:50.096Z,1.40
2022-12-30T12:31:50.196Z,1.60
2022-12-30T12:32:50.391Z,1.70
2022-12-30T12:33:50.005Z,1.90
2022-12-30T12:34:49.985Z,1.70
2022-12-30T12:35:49.973Z,1.60
2022-12-30T12:36:49.929Z,1.50
2022-12-30T12:37:49.964Z,1.50
2022-12-30T12:38:49.866Z,1.50
2022-12-30T12:39:49.840Z,1.80
2022-12-30T12:40:49.811Z,1.40
2022-12-30T12:41:49.793Z,1.40
2022-12-30T12:42:54.994Z,1.60
2022-12-30T12:43:49.731Z,1.60
2022-12-30T12:44:49.707Z,1.40
2022-12-30T12:45:49.681Z,1.60
2022-12-30T12:46:49.755Z,1.90
2022-12-30T12:47:49.617Z,1.80
2022-12-30T12:48:49.611Z,1.90
2022-12-30T12:49:49.566Z,1.80
2022-12-30T12:50:49.558Z,1.80
2022-12-30T12:51:49.541Z,1.60
2022-12-30T12:52:49.487Z,1.50
2022-12-30T12:53:49.460Z,1.60
2022-12-30T12:54:50.127Z,1.50
2022-12-30T12:55:49.405Z,1.70
2022-12-30T12:56:49.375Z,2.20
2022-12-30T12:57:49.345Z,2.00
2022-12-30T12:58:49.321Z,1.70
2022-12-30T12:59:49.306Z,2.10
2022-12-30T13:00:49.299Z,1.80
2022-12-30T13:02:04.125Z,1.90
2022-12-30T13:02:54.484Z,1.50
2022-12-30T13:03:49.347Z,1.70
2022-12-30T13:04:49.157Z,1.60
2022-12-30T13:05:49.139Z,1.60
2022-12-30T13:06:49.102Z,1.60
2022-12-30T13:08:18.068Z,1.70
2022-12-30T13:08:49.110Z,1.70
2022-12-30T13:09:55.663Z,1.50
2022-12-30T13:11:48.964Z,1.50
2022-12-30T13:12:48.953Z,1.70
2022-12-30T13:13:48.907Z,1.70
2022-12-30T13:14:48.894Z,1.60
2022-12-30T13:15:48.950Z,1.70
2022-12-30T13:16:48.863Z,1.70
2022-12-30T13:17:48.824Z,1.50
2022-12-30T13:18:48.783Z,1.60